createdAt,value
2023-09-29T00:00:17.329Z,96.20
2023-09-29T00:02:47.714Z,96.10
2023-09-29T00:05:19.672Z,96.20
2023-09-29T00:07:48.457Z,96.30
2023-09-29T00:10:18.086Z,96.20
2023-09-29T00:12:46.594Z,96.20
2023-09-29T00:15:14.806Z,96.20
2023-09-29T00:17:43.228Z,96.20
2023-09-29T00:20:18.981Z,96.00
2023-09-29T00:22:48.374Z,96.10
2023-09-29T00:25:16.652Z,96.30
2023-09-29T00:27:44.722Z,96.40
2023-09-29T00:30:14.569Z,96.20
2023-09-29T00:32:46.310Z,95.90
2023-09-29T00:35:19.741Z,95.90
2023-09-29T00:37:49.809Z,95.80
2023-09-29T00:40:17.959Z,95.80
2023-09-29T00:42:47.837Z,95.80
2023-09-29T00:45:17.275Z,95.90
2023-09-29T00:47:48.120Z,96.00
2023-09-29T00:50:16.289Z,95.80
2023-09-29T00:52:45.553Z,96.00
2023-09-29T00:55:17.077Z,96.00
2023-09-29T00:57:49.022Z,96.10
2023-09-29T01:00:22.584Z,96.00
2023-09-29T01:02:51.095Z,95.90
2023-09-29T01:05:19.786Z,96.10
2023-09-29T01:07:48.258Z,96.30
2023-09-29T01:10:18.942Z,96.00
2023-09-29T01:12:47.608Z,96.00
2023-09-29T01:15:20.269Z,95.90
2023-09-29T01:17:49.063Z,95.90
2023-09-29T01:20:26.291Z,96.00
2023-09-29T01:22:54.496Z,96.00
2023-09-29T01:25:23.879Z,96.10
2023-09-29T01:27:53.209Z,96.00
2023-09-29T01:30:21.416Z,96.00
2023-09-29T01:32:50.743Z,95.80
2023-09-29T01:35:24.459Z,96.00
2023-09-29T01:37:54.669Z,95.80
2023-09-29T01:40:24.696Z,96.00
2023-09-29T01:42:54.172Z,96.10
2023-09-29T01:45:22.595Z,95.70
2023-09-29T01:47:51.842Z,95.30
2023-09-29T01:50:21.595Z,95.40
2023-09-29T01:52:50.774Z,95.60
2023-09-29T01:55:23.704Z,95.60
2023-09-29T01:57:55.987Z,95.50
2023-09-29T02:00:26.681Z,95.70
2023-09-29T02:02:56.512Z,95.30
2023-09-29T02:05:25.463Z,95.70
2023-09-29T02:07:54.290Z,95.70
2023-09-29T02:10:23.633Z,95.70
2023-09-29T02:12:58.074Z,95.90
2023-09-29T02:15:26.872Z,96.00
2023-09-29T02:17:55.413Z,96.30
2023-09-29T02:20:38.722Z,96.50
2023-09-29T02:23:08.306Z,96.20
2023-09-29T02:25:36.732Z,96.00
2023-09-29T02:28:06.561Z,96.30
2023-09-29T02:30:35.210Z,95.90
2023-09-29T02:33:03.383Z,96.20
2023-09-29T02:35:32.014Z,96.40
2023-09-29T02:38:00.763Z,96.30
2023-09-29T02:40:29.775Z,96.20
2023-09-29T02:42:58.101Z,96.20
2023-09-29T02:45:27.782Z,96.00
2023-09-29T02:47:56.770Z,96.10
2023-09-29T02:50:26.279Z,95.90
2023-09-29T02:52:54.739Z,95.90
2023-09-29T02:55:24.040Z,95.70
2023-09-29T02:57:52.144Z,95.80
2023-09-29T03:00:21.444Z,95.90
2023-09-29T03:02:52.519Z,96.00
2023-09-29T03:05:22.386Z,95.90
2023-09-29T03:07:52.357Z,96.30
2023-09-29T03:10:22.235Z,96.40
2023-09-29T03:12:50.640Z,96.40
2023-09-29T03:15:18.748Z,96.90
2023-09-29T03:17:47.902Z,96.40
2023-09-29T03:20:17.752Z,95.90
2023-09-29T03:22:47.362Z,96.10
2023-09-29T03:25:17.907Z,96.30
2023-09-29T03:27:46.805Z,96.50
2023-09-29T03:30:16.582Z,96.50
2023-09-29T03:32:45.121Z,96.70
2023-09-29T03:35:14.601Z,96.70
2023-09-29T03:37:46.077Z,97.00
2023-09-29T03:40:15.098Z,97.00
2023-09-29T03:42:43.624Z,97.00
2023-09-29T03:45:13.657Z,97.20
2023-09-29T03:47:42.596Z,97.20
2023-09-29T03:50:12.622Z,96.90
2023-09-29T03:52:41.410Z,96.80
2023-09-29T03:55:13.191Z,96.70
2023-09-29T03:57:42.429Z,96.50
2023-09-29T04:00:13.045Z,96.50
2023-09-29T04:02:42.720Z,96.20
2023-09-29T04:05:11.778Z,96.20
2023-09-29T04:07:41.906Z,96.10
2023-09-29T04:10:13.695Z,96.00
2023-09-29T04:12:47.267Z,96.00
2023-09-29T04:15:16.107Z,96.40
2023-09-29T04:17:44.736Z,96.40
2023-09-29T04:20:13.910Z,96.30
2023-09-29T04:22:42.123Z,96.70
2023-09-29T04:25:12.522Z,96.50
2023-09-29T04:27:41.262Z,96.60
2023-09-29T04:30:11.332Z,96.70
2023-09-29T04:32:39.737Z,96.80
2023-09-29T04:35:08.556Z,96.80
2023-09-29T04:37:36.812Z,96.80
2023-09-29T04:40:05.507Z,96.90
2023-09-29T04:42:35.547Z,96.80
2023-09-29T04:45:04.645Z,96.70
2023-09-29T04:47:33.017Z,97.00
2023-09-29T04:50:01.221Z,97.10
2023-09-29T04:52:29.227Z,97.50
2023-09-29T04:54:57.250Z,97.50
2023-09-29T04:57:25.276Z,97.50
2023-09-29T04:59:54.655Z,97.70
2023-09-29T05:02:22.642Z,97.50
2023-09-29T05:04:50.720Z,97.30
2023-09-29T05:07:18.695Z,97.40
2023-09-29T05:09:47.688Z,97.20
2023-09-29T05:12:15.765Z,97.30
2023-09-29T05:14:43.828Z,97.30
2023-09-29T05:17:13.973Z,97.40
2023-09-29T05:19:41.975Z,97.00
2023-09-29T05:22:10.286Z,97.30
2023-09-29T05:24:38.255Z,97.30
2023-09-29T05:27:06.360Z,97.10
2023-09-29T05:29:35.229Z,97.20
2023-09-29T05:32:03.317Z,97.30
2023-09-29T05:34:32.724Z,97.50
2023-09-29T05:37:00.690Z,97.70
2023-09-29T05:39:28.665Z,97.90
2023-09-29T05:41:56.779Z,98.00
2023-09-29T05:44:24.845Z,98.10
2023-09-29T05:46:52.844Z,98.50
2023-09-29T05:49:20.907Z,98.50
2023-09-29T05:51:50.591Z,98.10
2023-09-29T05:54:18.740Z,98.20
2023-09-29T05:56:47.136Z,98.50
2023-09-29T05:59:15.108Z,98.20
2023-09-29T06:01:43.135Z,98.10
2023-09-29T06:04:11.245Z,98.40
2023-09-29T06:06:39.753Z,98.20
2023-09-29T06:09:09.141Z,98.30
2023-09-29T06:11:37.172Z,98.50
2023-09-29T06:14:05.267Z,98.50
2023-09-29T06:16:33.471Z,98.50
2023-09-29T06:19:01.534Z,98.20
2023-09-29T06:21:29.834Z,98.60
2023-09-29T06:23:57.930Z,98.70
2023-09-29T06:26:27.565Z,99.10
2023-09-29T06:28:55.663Z,99.00
2023-09-29T06:31:23.760Z,98.90
2023-09-29T06:33:51.962Z,98.80
2023-09-29T06:36:20.027Z,98.80
2023-09-29T06:38:48.131Z,98.70
2023-09-29T06:41:17.876Z,98.20
2023-09-29T06:43:48.733Z,98.50
2023-09-29T06:46:16.791Z,98.90
2023-09-29T06:48:45.812Z,98.40
2023-09-29T06:51:13.944Z,98.40
2023-09-29T06:53:42.161Z,98.30
2023-09-29T06:56:10.190Z,98.90
2023-09-29T06:58:38.332Z,98.10
2023-09-29T07:01:08.542Z,97.80
2023-09-29T07:03:37.020Z,97.90
2023-09-29T07:06:05.557Z,98.00
2023-09-29T07:08:34.042Z,98.10
2023-09-29T07:11:02.094Z,97.70
2023-09-29T07:13:30.079Z,97.30
2023-09-29T07:15:58.146Z,97.30
2023-09-29T07:18:27.625Z,97.60
2023-09-29T07:20:55.714Z,97.00
2023-09-29T07:23:24.329Z,97.70
2023-09-29T07:25:53.340Z,97.50
2023-09-29T07:28:22.039Z,97.40
2023-09-29T07:30:51.822Z,96.80
2023-09-29T07:33:20.528Z,97.20
2023-09-29T07:35:50.194Z,97.10
2023-09-29T07:38:19.116Z,96.70
2023-09-29T07:40:48.481Z,96.60
2023-09-29T07:43:16.574Z,96.00
2023-09-29T07:45:48.108Z,95.70
2023-09-29T07:48:17.584Z,96.20
2023-09-29T07:50:46.740Z,95.60
2023-09-29T07:53:16.402Z,95.40
2023-09-29T07:55:44.496Z,95.40
2023-09-29T07:58:12.570Z,95.10
2023-09-29T08:00:40.548Z,95.00
2023-09-29T08:03:08.922Z,95.00
2023-09-29T08:05:37.437Z,95.00
2023-09-29T08:08:06.047Z,95.20
2023-09-29T08:10:35.565Z,95.40
2023-09-29T08:13:03.605Z,95.80
2023-09-29T08:15:31.578Z,95.60
2023-09-29T08:17:59.740Z,95.90
2023-09-29T08:20:27.804Z,95.90
2023-09-29T08:22:55.974Z,95.80
2023-09-29T08:25:23.937Z,95.60
2023-09-29T08:27:53.579Z,95.40
2023-09-29T08:30:22.398Z,95.00
2023-09-29T08:32:56.718Z,94.90
2023-09-29T08:35:31.035Z,94.50
2023-09-29T08:38:00.005Z,94.30
2023-09-29T08:40:28.131Z,94.60
2023-09-29T08:42:58.030Z,94.70
2023-09-29T08:45:30.175Z,94.50
2023-09-29T08:48:01.899Z,93.80
2023-09-29T08:50:29.981Z,93.80
2023-09-29T08:53:01.844Z,93.30
2023-09-29T08:55:31.720Z,93.00
2023-09-29T08:58:02.526Z,93.40
2023-09-29T09:00:32.178Z,93.00
2023-09-29T09:03:02.366Z,93.00
2023-09-29T09:05:30.588Z,92.60
2023-09-29T09:08:02.419Z,92.80
2023-09-29T09:10:34.476Z,93.10
2023-09-29T09:13:04.536Z,92.70
2023-09-29T09:15:33.141Z,92.80
2023-09-29T09:18:01.486Z,91.90
2023-09-29T09:20:30.407Z,91.90
2023-09-29T09:22:59.844Z,91.60
2023-09-29T09:25:40.050Z,91.40
2023-09-29T09:28:17.083Z,91.50
2023-09-29T09:30:45.812Z,91.30
2023-09-29T09:33:20.148Z,90.30
2023-09-29T09:35:48.244Z,90.40
2023-09-29T09:38:16.353Z,90.70
2023-09-29T09:40:48.698Z,90.30
2023-09-29T09:43:20.826Z,90.70
2023-09-29T09:45:52.728Z,90.70
2023-09-29T09:48:23.665Z,90.10
2023-09-29T09:50:54.921Z,89.90
2023-09-29T09:53:26.721Z,89.40
2023-09-29T09:55:58.318Z,87.80
2023-09-29T09:58:28.110Z,86.50
2023-09-29T10:00:57.033Z,86.70
2023-09-29T10:03:29.147Z,86.10
2023-09-29T10:06:00.263Z,85.30
2023-09-29T10:08:32.348Z,86.50
2023-09-29T10:11:12.789Z,88.00
2023-09-29T10:13:43.619Z,85.70
2023-09-29T10:16:22.736Z,86.10
2023-09-29T10:18:58.762Z,83.80
2023-09-29T10:21:28.362Z,84.00
2023-09-29T10:24:01.223Z,83.70
2023-09-29T10:26:29.848Z,83.70
2023-09-29T10:29:03.672Z,82.90
2023-09-29T10:31:31.838Z,83.10
2023-09-29T10:34:02.150Z,83.30
2023-09-29T10:36:31.979Z,83.30
2023-09-29T10:39:05.313Z,82.00
2023-09-29T10:41:37.014Z,79.70
2023-09-29T10:44:07.635Z,79.80
2023-09-29T10:46:35.934Z,80.50
2023-09-29T10:49:04.145Z,79.40
2023-09-29T10:51:33.517Z,79.10
2023-09-29T10:54:08.198Z,80.90
2023-09-29T10:56:38.485Z,80.40
2023-09-29T10:59:09.936Z,78.30
2023-09-29T11:01:38.440Z,77.80
2023-09-29T11:04:10.244Z,77.30
2023-09-29T11:06:48.141Z,77.20
2023-09-29T11:09:22.104Z,77.70
2023-09-29T11:11:50.708Z,77.00
2023-09-29T11:14:20.161Z,76.70
2023-09-29T11:16:58.082Z,76.20
2023-09-29T11:19:27.768Z,75.00
2023-09-29T11:21:56.176Z,75.20
2023-09-29T11:24:24.403Z,74.70
2023-09-29T11:26:56.650Z,74.80
2023-09-29T11:29:29.085Z,76.60
2023-09-29T11:31:59.026Z,73.40
2023-09-29T11:34:30.552Z,73.50
2023-09-29T11:36:58.540Z,74.70
2023-09-29T11:39:26.573Z,74.50
2023-09-29T11:41:54.685Z,74.70
2023-09-29T11:44:22.770Z,75.70
2023-09-29T11:46:53.255Z,72.90
2023-09-29T11:49:21.671Z,73.90
2023-09-29T11:51:53.801Z,75.10
2023-09-29T11:54:21.939Z,73.40
2023-09-29T11:56:50.248Z,74.90
2023-09-29T11:59:18.510Z,74.90
2023-09-29T12:01:46.583Z,74.60
2023-09-29T12:04:16.628Z,74.60
2023-09-29T12:06:44.844Z,73.80
2023-09-29T12:09:12.870Z,70.80
2023-09-29T12:11:41.384Z,69.40
2023-09-29T12:14:09.916Z,73.00
2023-09-29T12:16:38.098Z,73.20
2023-09-29T12:19:06.362Z,74.20
2023-09-29T12:21:35.685Z,72.60
2023-09-29T12:24:03.672Z,73.60
2023-09-29T12:26:31.701Z,73.00
2023-09-29T12:28:59.899Z,72.60
2023-09-29T12:31:28.041Z,72.00
2023-09-29T12:33:57.602Z,71.00
2023-09-29T12:36:25.848Z,72.00
2023-09-29T12:38:55.552Z,71.30
2023-09-29T12:41:24.147Z,72.10
2023-09-29T12:43:52.183Z,70.70
2023-09-29T12:46:20.657Z,70.90
2023-09-29T12:48:49.240Z,71.10
2023-09-29T12:51:26.235Z,71.30
2023-09-29T12:53:58.446Z,70.20
2023-09-29T12:56:27.661Z,69.80
2023-09-29T12:58:56.929Z,70.30
2023-09-29T13:01:26.431Z,69.50
2023-09-29T13:03:55.038Z,70.20
2023-09-29T13:06:24.924Z,69.40
2023-09-29T13:08:53.141Z,69.10
2023-09-29T13:11:22.562Z,69.90
2023-09-29T13:13:50.626Z,71.30
2023-09-29T13:16:18.659Z,70.80
2023-09-29T13:18:47.098Z,69.20
2023-09-29T13:21:15.797Z,69.50
2023-09-29T13:23:44.501Z,68.10
2023-09-29T13:26:12.599Z,67.90
2023-09-29T13:28:41.966Z,67.30
2023-09-29T13:31:09.986Z,67.50
2023-09-29T13:33:38.046Z,67.80
2023-09-29T13:36:07.036Z,69.10
2023-09-29T13:38:35.120Z,68.50
2023-09-29T13:41:03.380Z,67.50
2023-09-29T13:43:31.715Z,67.70
2023-09-29T13:46:01.203Z,68.10
2023-09-29T13:48:29.332Z,68.30
2023-09-29T13:50:59.430Z,69.40
2023-09-29T13:53:27.644Z,68.60
2023-09-29T13:55:56.015Z,68.00
2023-09-29T13:58:24.043Z,66.60
2023-09-29T14:00:53.192Z,66.10
2023-09-29T14:03:22.861Z,68.10
2023-09-29T14:05:50.946Z,66.10
2023-09-29T14:08:20.209Z,66.90
2023-09-29T14:10:48.917Z,66.50
2023-09-29T14:13:17.641Z,66.40
2023-09-29T14:15:45.817Z,66.60
2023-09-29T14:18:14.098Z,66.70
2023-09-29T14:20:45.104Z,67.70
2023-09-29T14:23:13.526Z,65.90
2023-09-29T14:25:41.464Z,67.50
2023-09-29T14:28:10.411Z,66.90
2023-09-29T14:30:38.830Z,66.70
2023-09-29T14:33:07.228Z,65.90
2023-09-29T14:35:46.477Z,66.30
2023-09-29T14:38:19.015Z,65.60
2023-09-29T14:40:47.210Z,65.40
2023-09-29T14:43:16.361Z,65.10
2023-09-29T14:45:45.628Z,65.20
2023-09-29T14:48:13.999Z,66.40
2023-09-29T14:50:42.293Z,66.60
2023-09-29T14:53:10.380Z,66.90
2023-09-29T14:55:41.026Z,67.20
2023-09-29T14:58:09.738Z,64.80
2023-09-29T15:00:42.320Z,67.60
2023-09-29T15:03:10.585Z,66.00
2023-09-29T15:05:41.121Z,65.10
2023-09-29T15:08:09.206Z,65.90
2023-09-29T15:10:37.206Z,66.00
2023-09-29T15:13:06.676Z,67.00
2023-09-29T15:15:34.751Z,67.30
2023-09-29T15:18:05.820Z,65.70
2023-09-29T15:20:34.092Z,66.10
2023-09-29T15:23:02.100Z,66.60
2023-09-29T15:25:30.059Z,66.40
2023-09-29T15:27:58.044Z,67.90
2023-09-29T15:30:27.376Z,66.40
2023-09-29T15:32:55.743Z,67.60
2023-09-29T15:35:23.859Z,68.20
2023-09-29T15:37:51.842Z,67.80
2023-09-29T15:40:19.877Z,67.70
2023-09-29T15:42:48.046Z,68.60
2023-09-29T15:45:16.092Z,68.80
2023-09-29T15:47:45.438Z,69.50
2023-09-29T15:50:13.556Z,70.00
2023-09-29T15:52:42.221Z,70.80
2023-09-29T15:55:11.596Z,71.60
2023-09-29T15:57:39.699Z,72.60
2023-09-29T16:00:09.386Z,72.60
2023-09-29T16:02:38.247Z,72.70
2023-09-29T16:05:09.565Z,73.60
2023-09-29T16:07:38.406Z,72.20
2023-09-29T16:10:07.624Z,73.30
2023-09-29T16:12:35.718Z,73.30
2023-09-29T16:15:03.841Z,73.40
2023-09-29T16:17:34.267Z,73.60
2023-09-29T16:20:02.600Z,73.30
2023-09-29T16:22:33.068Z,73.50
2023-09-29T16:25:01.522Z,74.90
2023-09-29T16:27:29.570Z,77.10
2023-09-29T16:29:57.542Z,77.00
2023-09-29T16:32:32.183Z,77.30
2023-09-29T16:35:02.298Z,77.20
2023-09-29T16:37:33.665Z,77.10
2023-09-29T16:40:11.714Z,76.90
2023-09-29T16:42:47.555Z,77.20
2023-09-29T16:45:16.770Z,77.10
2023-09-29T16:47:46.462Z,77.60
2023-09-29T16:50:16.431Z,77.40
2023-09-29T16:52:46.417Z,78.30
2023-09-29T16:55:14.520Z,79.20
2023-09-29T16:57:42.622Z,79.60
2023-09-29T17:00:12.329Z,79.50
2023-09-29T17:02:40.656Z,78.60
2023-09-29T17:05:09.951Z,78.60
2023-09-29T17:07:38.055Z,78.60
2023-09-29T17:10:08.897Z,78.90
2023-09-29T17:12:36.923Z,79.40
2023-09-29T17:15:08.294Z,79.80
2023-09-29T17:17:36.350Z,79.80
2023-09-29T17:20:05.043Z,81.50
2023-09-29T17:22:33.471Z,81.00
2023-09-29T17:25:01.874Z,80.90
2023-09-29T17:27:31.408Z,80.90
2023-09-29T17:29:59.875Z,80.90
2023-09-29T17:32:28.093Z,80.80
2023-09-29T17:35:01.610Z,81.30
2023-09-29T17:37:30.274Z,82.40
2023-09-29T17:39:58.445Z,83.90
2023-09-29T17:42:26.573Z,83.30
2023-09-29T17:44:55.953Z,83.80
2023-09-29T17:47:23.993Z,84.00
2023-09-29T17:49:52.035Z,84.00
2023-09-29T17:52:20.213Z,83.80
2023-09-29T17:54:48.389Z,84.20
2023-09-29T17:57:19.382Z,85.10
2023-09-29T17:59:47.578Z,84.60
2023-09-29T18:02:16.961Z,84.60
2023-09-29T18:04:45.159Z,84.70
2023-09-29T18:07:14.620Z,84.60
2023-09-29T18:09:42.602Z,85.20
2023-09-29T18:12:10.722Z,85.90
2023-09-29T18:14:38.865Z,85.60
2023-09-29T18:17:06.860Z,86.80
2023-09-29T18:19:36.259Z,86.70
2023-09-29T18:22:04.332Z,86.90
2023-09-29T18:24:32.538Z,86.40
2023-09-29T18:27:00.588Z,86.80
2023-09-29T18:29:28.618Z,86.90
2023-09-29T18:31:57.298Z,87.80
2023-09-29T18:34:25.294Z,87.60
2023-09-29T18:36:55.206Z,88.40
2023-09-29T18:39:23.413Z,88.40
2023-09-29T18:41:52.860Z,88.50
2023-09-29T18:44:21.305Z,88.90
2023-09-29T18:46:49.303Z,89.00
2023-09-29T18:49:17.344Z,89.40
2023-09-29T18:51:45.661Z,89.10
2023-09-29T18:54:16.266Z,89.60
2023-09-29T18:56:44.485Z,89.70
2023-09-29T18:59:13.884Z,90.00
2023-09-29T19:01:41.963Z,90.10
2023-09-29T19:04:13.486Z,90.20
2023-09-29T19:06:43.202Z,90.40
2023-09-29T19:09:12.035Z,90.20
2023-09-29T19:11:41.643Z,90.10
2023-09-29T19:14:12.083Z,90.10
2023-09-29T19:16:40.408Z,90.00
2023-09-29T19:19:09.629Z,90.00
2023-09-29T19:21:37.670Z,90.30
2023-09-29T19:24:06.206Z,90.40
2023-09-29T19:26:34.352Z,90.50
2023-09-29T19:29:03.740Z,90.60
2023-09-29T19:31:34.119Z,90.70
2023-09-29T19:34:02.204Z,91.00
2023-09-29T19:36:31.547Z,91.10
2023-09-29T19:38:59.995Z,91.10
2023-09-29T19:41:29.384Z,91.20
2023-09-29T19:43:57.531Z,91.10
2023-09-29T19:46:28.819Z,91.20
2023-09-29T19:48:57.106Z,91.30
2023-09-29T19:51:25.775Z,91.40
2023-09-29T19:53:55.691Z,91.40
2023-09-29T19:56:24.764Z,91.80
2023-09-29T19:58:53.042Z,91.60
2023-09-29T20:01:23.861Z,91.50
2023-09-29T20:03:53.538Z,91.60
2023-09-29T20:06:21.568Z,91.80
2023-09-29T20:08:51.682Z,91.80
2023-09-29T20:11:22.169Z,92.10
2023-09-29T20:13:50.557Z,92.30
2023-09-29T20:16:19.356Z,92.10
2023-09-29T20:18:47.801Z,92.30
2023-09-29T20:21:18.264Z,92.40
2023-09-29T20:23:46.408Z,92.30
2023-09-29T20:26:14.405Z,92.70
2023-09-29T20:28:43.273Z,92.40
2023-09-29T20:31:11.493Z,92.40
2023-09-29T20:33:39.950Z,92.30
2023-09-29T20:36:08.700Z,92.50
2023-09-29T20:38:38.102Z,92.40
2023-09-29T20:41:06.648Z,92.40
2023-09-29T20:43:34.631Z,92.40
2023-09-29T20:46:02.672Z,92.50
2023-09-29T20:48:30.977Z,92.70
2023-09-29T20:50:58.989Z,92.60
2023-09-29T20:53:29.678Z,92.60
2023-09-29T20:55:59.164Z,92.60
2023-09-29T20:58:27.134Z,92.60
2023-09-29T21:00:58.535Z,92.60
2023-09-29T21:03:27.449Z,92.70
2023-09-29T21:05:55.739Z,92.60
2023-09-29T21:08:23.809Z,92.60
2023-09-29T21:10:55.346Z,92.70
2023-09-29T21:13:24.825Z,92.80
2023-09-29T21:15:54.297Z,92.80
2023-09-29T21:18:22.906Z,92.80
2023-09-29T21:20:54.212Z,92.80
2023-09-29T21:23:22.623Z,92.90
2023-09-29T21:25:50.631Z,92.90
2023-09-29T21:28:18.844Z,92.90
2023-09-29T21:30:48.286Z,92.90
2023-09-29T21:33:16.388Z,93.10
2023-09-29T21:35:44.503Z,93.00
2023-09-29T21:38:12.574Z,93.10
2023-09-29T21:40:40.552Z,93.30
2023-09-29T21:43:09.067Z,93.50
2023-09-29T21:45:37.125Z,93.80
2023-09-29T21:48:07.416Z,93.40
2023-09-29T21:50:35.612Z,93.30
2023-09-29T21:53:03.652Z,93.40
2023-09-29T21:55:31.656Z,93.30
2023-09-29T21:58:00.742Z,93.30
2023-09-29T22:00:39.435Z,93.30
2023-09-29T22:03:10.710Z,93.20
2023-09-29T22:05:40.185Z,93.40
2023-09-29T22:08:08.589Z,93.60
2023-09-29T22:10:37.117Z,93.90
2023-09-29T22:13:05.446Z,93.90
2023-09-29T22:15:33.927Z,94.10
2023-09-29T22:18:04.313Z,94.20
2023-09-29T22:20:34.649Z,94.10
2023-09-29T22:23:02.791Z,94.20
2023-09-29T22:25:30.928Z,94.20
2023-09-29T22:27:59.132Z,94.20
2023-09-29T22:30:27.226Z,94.10
2023-09-29T22:32:55.367Z,94.20
2023-09-29T22:35:23.390Z,94.20
2023-09-29T22:37:52.720Z,94.20
2023-09-29T22:40:20.901Z,94.20
2023-09-29T22:42:50.341Z,94.20
2023-09-29T22:45:18.568Z,94.20
2023-09-29T22:47:46.624Z,94.10
2023-09-29T22:50:15.694Z,94.40
2023-09-29T22:52:44.000Z,94.10
2023-09-29T22:55:15.165Z,94.20
2023-09-29T22:57:43.814Z,94.30
2023-09-29T23:00:13.864Z,94.70
2023-09-29T23:02:44.803Z,94.50
2023-09-29T23:05:13.580Z,94.70
2023-09-29T23:07:41.983Z,94.70
2023-09-29T23:10:14.937Z,94.70
2023-09-29T23:12:46.852Z,94.70
2023-09-29T23:15:15.305Z,94.70
2023-09-29T23:17:43.390Z,94.70
2023-09-29T23:20:12.892Z,94.80
2023-09-29T23:22:42.170Z,94.90
2023-09-29T23:25:12.316Z,95.00
2023-09-29T23:27:41.153Z,95.20
2023-09-29T23:30:13.305Z,95.30
2023-09-29T23:32:41.753Z,95.20
2023-09-29T23:35:10.831Z,95.40
2023-09-29T23:37:38.025Z,95.20
2023-09-29T23:40:07.031Z,95.30
2023-09-29T23:42:35.173Z,95.20
2023-09-29T23:45:03.441Z,95.30
2023-09-29T23:47:33.266Z,95.30
2023-09-29T23:50:01.470Z,95.40
2023-09-29T23:52:29.638Z,95.30
2023-09-29T23:54:57.608Z,95.30
2023-09-29T23:57:25.645Z,95.30
2023-09-29T23:59:54.459Z,95.30
